Time;durP1;ratioP1;P1;durP2;ratioP2;P2;SDS_P1;SDS_P2;PMS_P1;PMS_P2;Temp;Humidity;BMP_temperature;BMP_pressure;BME280_temperature;BME280_humidity;BME280_pressure;Samples;Min_cycle;Max_cycle;Signal;HPM_P1;HPM_P2
2021/12/13 00:00:04;;;;;;;41.87;25.13;;;;;;;;;;4992387;28;20260;-64
2021/12/13 00:02:36;;;;;;;39.87;24.90;;;;;;;;;;4997250;28;20196;-61
2021/12/13 00:05:13;;;;;;;44.80;23.43;;;;;;;;;;4997721;28;20200;-63
2021/12/13 00:07:41;;;;;;;36.10;23.50;;;;;;;;;;4997372;28;20169;-62
2021/12/13 00:10:12;;;;;;;37.33;23.97;;;;;;;;;;4997438;28;20180;-62
2021/12/13 00:12:41;;;;;;;35.23;23.93;;;;;;;;;;4996350;28;20737;-63
2021/12/13 00:15:10;;;;;;;37.37;23.93;;;;;;;;;;4997191;28;20297;-62
2021/12/13 00:17:38;;;;;;;32.67;22.47;;;;;;;;;;4996003;28;20180;-63
2021/12/13 00:20:19;;;;;;;33.20;22.70;;;;;;;;;;4995739;28;20188;-61
2021/12/13 00:22:50;;;;;;;39.47;23.73;;;;;;;;;;4996185;28;20283;-62
2021/12/13 00:25:25;;;;;;;36.63;23.67;;;;;;;;;;4997601;28;20209;-63
2021/12/13 00:37:23;;;;;;;36.70;24.27;;;;;;;;;;4997733;28;20215;-62
2021/12/13 00:45:58;;;;;;;31.47;22.13;;;;;;;;;;4997195;28;20207;-62
2021/12/13 00:48:26;;;;;;;42.80;23.13;;;;;;;;;;4996645;28;20235;-62
2021/12/13 00:50:59;;;;;;;35.17;22.87;;;;;;;;;;4996838;28;20719;-62
2021/12/13 00:53:26;;;;;;;32.00;20.70;;;;;;;;;;4996562;28;20176;-62
2021/12/13 00:55:52;;;;;;;36.17;23.17;;;;;;;;;;4996573;28;20680;-62
2021/12/13 00:58:20;;;;;;;38.10;20.77;;;;;;;;;;4996822;28;20180;-61
2021/12/13 01:00:51;;;;;;;33.33;22.17;;;;;;;;;;4996530;28;20220;-62
2021/12/13 01:03:17;;;;;;;39.13;21.67;;;;;;;;;;4997053;28;20203;-63
2021/12/13 01:06:08;;;;;;;36.00;21.60;;;;;;;;;;4996522;28;20197;-63
2021/12/13 01:08:53;;;;;;;38.97;21.83;;;;;;;;;;4996597;28;20264;-63
2021/12/13 01:11:47;;;;;;;35.17;21.60;;;;;;;;;;4996049;28;20180;-62
2021/12/13 01:14:30;;;;;;;37.37;20.90;;;;;;;;;;4995190;28;20629;-63
2021/12/13 01:17:04;;;;;;;37.37;21.50;;;;;;;;;;4996834;28;20682;-63
2021/12/13 01:19:54;;;;;;;33.30;21.00;;;;;;;;;;4996913;28;20169;-63
2021/12/13 01:22:32;;;;;;;32.40;20.23;;;;;;;;;;4995063;28;20627;-62
2021/12/13 01:27:29;;;;;;;36.13;20.93;;;;;;;;;;4996341;28;20653;-62
2021/12/13 01:29:55;;;;;;;33.17;20.73;;;;;;;;;;4996096;28;20179;-63
2021/12/13 01:32:22;;;;;;;34.73;20.47;;;;;;;;;;4996247;28;20235;-62
2021/12/13 01:34:48;;;;;;;31.70;20.43;;;;;;;;;;4994947;28;20204;-63
2021/12/13 01:37:16;;;;;;;31.27;19.83;;;;;;;;;;4994802;28;20238;-63
2021/12/13 01:39:44;;;;;;;30.30;19.87;;;;;;;;;;4994753;28;20271;-62
2021/12/13 01:42:12;;;;;;;31.33;19.57;;;;;;;;;;4995042;28;20231;-62
2021/12/13 01:44:42;;;;;;;30.33;20.20;;;;;;;;;;4996177;28;20243;-63
2021/12/13 01:47:13;;;;;;;33.07;20.30;;;;;;;;;;4996320;28;20556;-63
2021/12/13 01:49:41;;;;;;;30.77;19.90;;;;;;;;;;4995725;28;20176;-63
2021/12/13 01:52:28;;;;;;;33.03;20.67;;;;;;;;;;4995500;28;20246;-62
2021/12/13 01:54:56;;;;;;;33.03;19.10;;;;;;;;;;4995637;28;20572;-62
2021/12/13 01:57:27;;;;;;;32.77;19.43;;;;;;;;;;4995518;28;20671;-62
2021/12/13 01:59:56;;;;;;;31.87;19.20;;;;;;;;;;4996047;28;20183;-61
2021/12/13 02:02:28;;;;;;;31.03;19.47;;;;;;;;;;4994211;28;20557;-62
2021/12/13 02:04:59;;;;;;;33.07;20.07;;;;;;;;;;4995162;28;20684;-63
2021/12/13 02:07:27;;;;;;;26.27;18.33;;;;;;;;;;4995580;28;20175;-62
2021/12/13 02:09:56;;;;;;;27.77;18.37;;;;;;;;;;4995301;28;20177;-61
2021/12/13 02:12:26;;;;;;;27.70;18.73;;;;;;;;;;4995455;28;20180;-59
2021/12/13 02:17:56;;;;;;;28.13;18.07;;;;;;;;;;4954828;29;20248;-62
2021/12/13 02:20:27;;;;;;;33.20;19.03;;;;;;;;;;4982370;28;20191;-62
2021/12/13 02:22:54;;;;;;;28.20;18.33;;;;;;;;;;4994956;28;20283;-62
2021/12/13 02:25:37;;;;;;;29.70;18.10;;;;;;;;;;4992979;28;20665;-62
2021/12/13 02:28:05;;;;;;;30.23;17.20;;;;;;;;;;4994932;28;20187;-62
2021/12/13 02:30:40;;;;;;;26.87;18.37;;;;;;;;;;4994974;28;20176;-61
2021/12/13 02:33:07;;;;;;;29.67;17.13;;;;;;;;;;4995305;28;20180;-63
2021/12/13 02:35:35;;;;;;;29.80;17.07;;;;;;;;;;4995404;28;20208;-62
2021/12/13 02:38:02;;;;;;;23.87;16.37;;;;;;;;;;4993744;28;20196;-63
2021/12/13 02:40:28;;;;;;;26.27;16.63;;;;;;;;;;4993404;28;20187;-62
2021/12/13 02:42:54;;;;;;;27.00;17.37;;;;;;;;;;4994879;28;20357;-63
2021/12/13 02:45:42;;;;;;;26.33;16.40;;;;;;;;;;4995030;28;20703;-61
2021/12/13 02:48:12;;;;;;;25.13;16.07;;;;;;;;;;4993506;28;20173;-62
2021/12/13 02:50:40;;;;;;;26.33;17.30;;;;;;;;;;4994794;28;20188;-63
2021/12/13 02:53:07;;;;;;;23.40;15.70;;;;;;;;;;4993398;28;20652;-63
2021/12/13 02:55:33;;;;;;;27.43;16.80;;;;;;;;;;4994629;28;20204;-64
2021/12/13 02:58:01;;;;;;;26.43;16.47;;;;;;;;;;4994782;28;20223;-61
2021/12/13 03:00:37;;;;;;;24.83;16.20;;;;;;;;;;4993220;28;20230;-61
2021/12/13 03:03:05;;;;;;;26.27;16.07;;;;;;;;;;4994386;28;20207;-63
2021/12/13 03:05:37;;;;;;;24.80;16.70;;;;;;;;;;4994556;28;20214;-61
2021/12/13 03:08:16;;;;;;;25.37;14.83;;;;;;;;;;4994449;28;20164;-60
2021/12/13 03:10:47;;;;;;;25.43;15.63;;;;;;;;;;4993168;28;20251;-62
2021/12/13 03:13:13;;;;;;;26.97;15.60;;;;;;;;;;4995244;28;20165;-60
2021/12/13 03:15:39;;;;;;;22.93;16.10;;;;;;;;;;4994478;28;20204;-61
2021/12/13 03:18:08;;;;;;;22.57;15.37;;;;;;;;;;4995050;28;20188;-61
2021/12/13 03:20:53;;;;;;;21.77;15.07;;;;;;;;;;4994523;28;20191;-61
2021/12/13 03:23:22;;;;;;;23.73;15.93;;;;;;;;;;4992976;28;20644;-61
2021/12/13 03:25:51;;;;;;;24.97;15.53;;;;;;;;;;4994371;28;20216;-62
2021/12/13 03:28:36;;;;;;;22.93;15.43;;;;;;;;;;4994411;28;20176;-61
2021/12/13 03:31:22;;;;;;;23.37;14.20;;;;;;;;;;4994814;28;20223;-62
2021/12/13 03:33:51;;;;;;;21.80;13.80;;;;;;;;;;4994534;28;20160;-62
2021/12/13 03:36:24;;;;;;;23.50;14.47;;;;;;;;;;4997682;28;20200;-62
2021/12/13 03:38:54;;;;;;;18.20;13.47;;;;;;;;;;4998314;28;20175;-61
2021/12/13 03:41:22;;;;;;;18.93;13.77;;;;;;;;;;4998292;28;20617;-61
2021/12/13 03:43:52;;;;;;;25.33;14.90;;;;;;;;;;4998543;28;20204;-62
2021/12/13 03:46:20;;;;;;;21.93;14.47;;;;;;;;;;4998104;28;20680;-60
2021/12/13 03:48:47;;;;;;;16.03;12.77;;;;;;;;;;4998264;28;20173;-60
2021/12/13 03:51:14;;;;;;;18.90;13.00;;;;;;;;;;4998304;28;20183;-62
2021/12/13 03:53:44;;;;;;;19.10;13.23;;;;;;;;;;4998045;28;20184;-63
2021/12/13 03:56:13;;;;;;;19.30;13.03;;;;;;;;;;4997925;28;20706;-62
2021/12/13 03:58:43;;;;;;;18.00;12.87;;;;;;;;;;4998006;28;20553;-61
2021/12/13 04:01:09;;;;;;;17.10;12.30;;;;;;;;;;4996653;28;20181;-62
2021/12/13 04:03:37;;;;;;;18.60;12.20;;;;;;;;;;4997730;28;20212;-61
2021/12/13 04:06:04;;;;;;;16.47;12.53;;;;;;;;;;4997853;28;20192;-63
2021/12/13 04:08:31;;;;;;;16.90;12.10;;;;;;;;;;4997782;28;20176;-63
2021/12/13 04:11:03;;;;;;;18.90;12.30;;;;;;;;;;4997731;28;20185;-61
2021/12/13 04:13:31;;;;;;;14.40;11.57;;;;;;;;;;4997546;28;20280;-63
2021/12/13 04:16:14;;;;;;;14.87;10.90;;;;;;;;;;4997558;28;20340;-62
2021/12/13 04:21:19;;;;;;;16.43;10.80;;;;;;;;;;4997729;28;20165;-61
2021/12/13 04:23:52;;;;;;;14.67;11.23;;;;;;;;;;4997388;28;20581;-64
2021/12/13 04:26:20;;;;;;;14.40;11.07;;;;;;;;;;4997622;28;20545;-61
2021/12/13 04:28:50;;;;;;;16.20;11.30;;;;;;;;;;4997132;28;20703;-63
2021/12/13 04:31:18;;;;;;;14.93;10.47;;;;;;;;;;4996197;28;20186;-63
2021/12/13 04:33:45;;;;;;;17.43;11.37;;;;;;;;;;4997615;28;20327;-63
2021/12/13 04:36:22;;;;;;;11.30;10.10;;;;;;;;;;4995991;28;20211;-62
2021/12/13 04:38:52;;;;;;;13.40;10.93;;;;;;;;;;4997776;28;20247;-62
2021/12/13 04:41:41;;;;;;;16.17;10.20;;;;;;;;;;4995957;28;20189;-63
2021/12/13 04:44:09;;;;;;;13.50;10.17;;;;;;;;;;4987219;28;20231;-61
2021/12/13 04:46:36;;;;;;;14.00;10.10;;;;;;;;;;4996724;28;20230;-62
2021/12/13 04:49:09;;;;;;;14.37;10.47;;;;;;;;;;4997568;28;20199;-63
2021/12/13 04:51:44;;;;;;;16.63;9.43;;;;;;;;;;4995968;28;20180;-63
2021/12/13 04:54:11;;;;;;;14.43;10.00;;;;;;;;;;4997088;28;20247;-63
2021/12/13 04:56:37;;;;;;;18.10;10.83;;;;;;;;;;4996578;28;20200;-63
2021/12/13 04:59:04;;;;;;;15.27;10.43;;;;;;;;;;4997068;28;20258;-62
2021/12/13 05:01:30;;;;;;;19.83;10.20;;;;;;;;;;4997468;28;20231;-63
2021/12/13 05:03:58;;;;;;;11.83;10.03;;;;;;;;;;4996881;28;20216;-61
2021/12/13 05:06:27;;;;;;;13.27;9.73;;;;;;;;;;4995596;28;20188;-61
2021/12/13 05:08:56;;;;;;;11.80;9.20;;;;;;;;;;4997502;28;20177;-63
2021/12/13 05:11:22;;;;;;;11.47;9.60;;;;;;;;;;4996104;28;20180;-63
2021/12/13 05:13:53;;;;;;;12.43;8.87;;;;;;;;;;4995619;28;20188;-63
2021/12/13 05:16:27;;;;;;;12.87;9.27;;;;;;;;;;4996972;28;20282;-61
2021/12/13 05:18:54;;;;;;;13.27;9.20;;;;;;;;;;4995504;28;20648;-61
2021/12/13 05:21:25;;;;;;;10.50;8.87;;;;;;;;;;4997167;28;20190;-61
2021/12/13 05:23:55;;;;;;;13.23;10.07;;;;;;;;;;4997170;28;20573;-62
2021/12/13 05:26:29;;;;;;;15.90;10.23;;;;;;;;;;4997138;28;20208;-63
2021/12/13 05:28:57;;;;;;;13.17;9.43;;;;;;;;;;4996788;28;20264;-63
2021/12/13 05:31:24;;;;;;;12.70;9.47;;;;;;;;;;4995380;28;20188;-63
2021/12/13 05:33:52;;;;;;;11.43;10.23;;;;;;;;;;4996951;28;20268;-63
2021/12/13 05:36:21;;;;;;;11.20;9.40;;;;;;;;;;4996824;28;20255;-60
2021/12/13 05:38:49;;;;;;;11.00;9.10;;;;;;;;;;4995639;28;20192;-61
2021/12/13 05:41:26;;;;;;;10.23;8.70;;;;;;;;;;4996261;28;20192;-61
2021/12/13 05:43:53;;;;;;;13.97;9.37;;;;;;;;;;4996442;28;20200;-62
2021/12/13 05:46:23;;;;;;;12.87;8.90;;;;;;;;;;4996948;28;20268;-63
2021/12/13 05:48:52;;;;;;;11.93;9.23;;;;;;;;;;4996897;28;20232;-62
2021/12/13 05:51:35;;;;;;;10.47;8.43;;;;;;;;;;4995052;28;20183;-63
2021/12/13 05:54:04;;;;;;;11.47;8.90;;;;;;;;;;4996570;28;20676;-62
2021/12/13 05:56:45;;;;;;;9.80;8.57;;;;;;;;;;4996663;28;20268;-63
2021/12/13 05:59:13;;;;;;;12.20;9.13;;;;;;;;;;4994962;28;20173;-61
2021/12/13 06:01:58;;;;;;;12.13;9.60;;;;;;;;;;4996551;28;20573;-60
2021/12/13 06:04:31;;;;;;;16.53;9.00;;;;;;;;;;4996013;28;20212;-60
2021/12/13 06:06:57;;;;;;;10.90;9.20;;;;;;;;;;4995049;28;20180;-62
2021/12/13 06:09:39;;;;;;;14.53;9.23;;;;;;;;;;4995797;28;20699;-61
2021/12/13 06:12:06;;;;;;;9.47;8.30;;;;;;;;;;4994838;28;20546;-63
2021/12/13 06:14:33;;;;;;;9.47;8.40;;;;;;;;;;4994587;28;20208;-63
2021/12/13 06:17:03;;;;;;;11.17;9.00;;;;;;;;;;4996182;28;20184;-64
2021/12/13 06:19:28;;;;;;;14.40;8.73;;;;;;;;;;4996244;28;20611;-62
2021/12/13 06:21:54;;;;;;;12.13;8.63;;;;;;;;;;4994918;28;20262;-62
2021/12/13 06:24:29;;;;;;;12.53;8.73;;;;;;;;;;4995973;28;20291;-63
2021/12/13 06:27:03;;;;;;;11.67;9.00;;;;;;;;;;4995519;28;20176;-61
2021/12/13 06:29:44;;;;;;;13.00;8.67;;;;;;;;;;4995529;28;20177;-62
2021/12/13 06:32:33;;;;;;;12.20;8.63;;;;;;;;;;4995966;28;20252;-63
2021/12/13 06:35:00;;;;;;;11.40;8.80;;;;;;;;;;4967216;28;20621;-63
2021/12/13 06:37:28;;;;;;;10.97;7.93;;;;;;;;;;4994290;28;20275;-63
2021/12/13 06:40:33;;;;;;;12.00;8.23;;;;;;;;;;4995141;28;20648;-61
2021/12/13 06:43:00;;;;;;;12.07;8.83;;;;;;;;;;4955178;29;20224;-63
2021/12/13 06:45:32;;;;;;;11.40;7.83;;;;;;;;;;4954511;29;20209;-63
2021/12/13 06:47:59;;;;;;;9.93;7.40;;;;;;;;;;4975855;28;20192;-62
2021/12/13 06:50:30;;;;;;;10.90;7.70;;;;;;;;;;4995129;28;20739;-62
2021/12/13 06:53:17;;;;;;;11.20;7.97;;;;;;;;;;4994848;28;20177;-63
2021/12/13 06:55:44;;;;;;;8.80;7.70;;;;;;;;;;4993750;28;20290;-62
2021/12/13 06:58:16;;;;;;;10.23;7.13;;;;;;;;;;4995337;28;20184;-61
2021/12/13 07:00:42;;;;;;;8.70;7.63;;;;;;;;;;5030879;23;20261;-64
2021/12/13 07:03:16;;;;;;;7.90;7.03;;;;;;;;;;5029392;28;20238;-63
2021/12/13 07:05:42;;;;;;;9.57;6.90;;;;;;;;;;5012127;28;20174;-62
2021/12/13 07:08:10;;;;;;;8.47;6.77;;;;;;;;;;5011449;28;20184;-62
2021/12/13 07:10:41;;;;;;;9.67;7.50;;;;;;;;;;5031885;28;20195;-64
2021/12/13 07:13:27;;;;;;;9.63;8.00;;;;;;;;;;5035111;28;20202;-62
2021/12/13 07:15:56;;;;;;;8.97;7.67;;;;;;;;;;5021978;28;20218;-64
2021/12/13 07:18:29;;;;;;;14.27;7.70;;;;;;;;;;5033938;28;20252;-64
2021/12/13 07:20:58;;;;;;;10.27;7.40;;;;;;;;;;5029717;28;20274;-63
2021/12/13 07:23:25;;;;;;;10.17;7.83;;;;;;;;;;5021418;28;20200;-64
2021/12/13 07:25:52;;;;;;;9.97;7.40;;;;;;;;;;5021757;28;20182;-64
2021/12/13 07:28:47;;;;;;;11.47;7.30;;;;;;;;;;5025519;28;20182;-63
2021/12/13 07:31:18;;;;;;;7.53;6.37;;;;;;;;;;5008191;28;20302;-61
2021/12/13 07:33:45;;;;;;;10.77;6.93;;;;;;;;;;5012396;28;20179;-64
2021/12/13 07:36:15;;;;;;;9.50;7.30;;;;;;;;;;5013575;28;20188;-62
2021/12/13 07:38:53;;;;;;;9.23;7.30;;;;;;;;;;5029467;28;20180;-62
2021/12/13 07:41:20;;;;;;;10.73;7.10;;;;;;;;;;5023833;28;20200;-65
2021/12/13 07:43:46;;;;;;;15.83;8.57;;;;;;;;;;5021279;28;20203;-63
2021/12/13 07:46:12;;;;;;;10.27;7.20;;;;;;;;;;5021541;28;20226;-63
2021/12/13 07:48:41;;;;;;;13.40;7.27;;;;;;;;;;5003672;28;20644;-63
2021/12/13 07:51:13;;;;;;;9.10;6.93;;;;;;;;;;5020943;28;20202;-64
2021/12/13 07:53:42;;;;;;;9.60;7.63;;;;;;;;;;5021281;28;20313;-63
2021/12/13 07:56:10;;;;;;;7.00;6.30;;;;;;;;;;5020549;28;20183;-63
2021/12/13 07:58:38;;;;;;;10.47;6.37;;;;;;;;;;5020550;28;20194;-61
2021/12/13 08:01:08;;;;;;;7.47;6.43;;;;;;;;;;5020800;28;20216;-63
2021/12/13 08:03:34;;;;;;;10.47;7.77;;;;;;;;;;5020560;28;20203;-61
2021/12/13 08:06:06;;;;;;;8.70;6.97;;;;;;;;;;5020381;28;20176;-61
2021/12/13 08:08:35;;;;;;;12.37;8.20;;;;;;;;;;5002840;28;20183;-61
2021/12/13 08:11:01;;;;;;;8.40;7.00;;;;;;;;;;5020338;28;20187;-63
2021/12/13 08:13:29;;;;;;;11.07;7.43;;;;;;;;;;5020539;28;20191;-64
2021/12/13 08:15:57;;;;;;;11.87;7.60;;;;;;;;;;5020696;28;20176;-62
2021/12/13 08:18:25;;;;;;;12.60;8.70;;;;;;;;;;5020394;28;20234;-62
2021/12/13 08:20:54;;;;;;;8.53;7.50;;;;;;;;;;5019474;28;20207;-62
2021/12/13 08:23:26;;;;;;;14.97;6.70;;;;;;;;;;5016405;28;20200;-61
2021/12/13 08:25:54;;;;;;;7.80;5.73;;;;;;;;;;5017467;28;20168;-63
2021/12/13 08:28:21;;;;;;;7.53;5.57;;;;;;;;;;4999321;28;20207;-62
2021/12/13 08:30:50;;;;;;;7.10;5.70;;;;;;;;;;5017455;28;20195;-62
2021/12/13 08:33:21;;;;;;;5.83;4.97;;;;;;;;;;4999631;28;20180;-64
2021/12/13 08:36:07;;;;;;;8.20;6.03;;;;;;;;;;5019229;28;20174;-64
2021/12/13 08:38:43;;;;;;;7.77;5.83;;;;;;;;;;5003047;28;20199;-64
2021/12/13 08:41:18;;;;;;;7.77;6.23;;;;;;;;;;4998584;28;20694;-63
2021/12/13 08:43:48;;;;;;;8.70;6.67;;;;;;;;;;5016496;28;20239;-61
2021/12/13 08:46:24;;;;;;;5.47;4.90;;;;;;;;;;4998711;28;20180;-63
2021/12/13 08:48:51;;;;;;;6.60;5.63;;;;;;;;;;5016172;28;20174;-63
2021/12/13 08:51:20;;;;;;;8.07;6.17;;;;;;;;;;5016373;28;20207;-63
2021/12/13 08:53:49;;;;;;;5.63;4.57;;;;;;;;;;4998532;28;20184;-63
2021/12/13 08:56:21;;;;;;;7.60;4.73;;;;;;;;;;5015948;28;20176;-63
2021/12/13 08:58:55;;;;;;;5.43;4.73;;;;;;;;;;5016367;28;20616;-63
2021/12/13 09:01:21;;;;;;;7.60;5.07;;;;;;;;;;5015527;28;20583;-63
2021/12/13 09:03:48;;;;;;;10.60;5.90;;;;;;;;;;5015775;28;20235;-63
2021/12/13 09:06:17;;;;;;;5.90;5.30;;;;;;;;;;5016209;28;20644;-63
2021/12/13 09:08:45;;;;;;;8.83;6.10;;;;;;;;;;5015813;28;20176;-61
2021/12/13 09:11:31;;;;;;;10.40;6.80;;;;;;;;;;4998047;28;20204;-61
2021/12/13 09:13:57;;;;;;;11.20;9.10;;;;;;;;;;5015918;28;20180;-61
2021/12/13 09:16:44;;;;;;;11.63;9.60;;;;;;;;;;4998223;28;20280;-60
2021/12/13 09:19:13;;;;;;;7.47;6.27;;;;;;;;;;4985071;28;20238;-60
2021/12/13 09:21:48;;;;;;;6.70;5.07;;;;;;;;;;5015729;28;20322;-61
2021/12/13 09:24:22;;;;;;;6.40;5.77;;;;;;;;;;5015595;28;20206;-61
2021/12/13 09:26:48;;;;;;;5.13;4.63;;;;;;;;;;5015896;28;20245;-61
2021/12/13 09:29:17;;;;;;;5.27;4.77;;;;;;;;;;4997886;28;20187;-60
2021/12/13 09:31:43;;;;;;;6.43;5.83;;;;;;;;;;5015292;28;20191;-61
2021/12/13 09:34:13;;;;;;;6.17;5.57;;;;;;;;;;5015081;28;20263;-61
2021/12/13 09:36:40;;;;;;;7.67;4.60;;;;;;;;;;5015898;28;20183;-61
2021/12/13 09:39:26;;;;;;;7.37;5.33;;;;;;;;;;5015271;28;20602;-61
2021/12/13 09:41:53;;;;;;;9.70;6.70;;;;;;;;;;5015534;28;20282;-60
2021/12/13 09:44:19;;;;;;;5.10;4.60;;;;;;;;;;4997469;28;20204;-61
2021/12/13 09:46:49;;;;;;;5.67;4.17;;;;;;;;;;4997520;28;20183;-61
2021/12/13 09:49:15;;;;;;;5.30;4.80;;;;;;;;;;5014978;28;20711;-60
2021/12/13 09:51:46;;;;;;;7.97;6.97;;;;;;;;;;5014883;28;20272;-61
2021/12/13 09:54:13;;;;;;;6.03;5.13;;;;;;;;;;4997254;28;20204;-62
2021/12/13 09:56:43;;;;;;;5.23;4.73;;;;;;;;;;5015283;28;20233;-61
2021/12/13 09:59:15;;;;;;;5.87;4.87;;;;;;;;;;5015097;28;20227;-61
2021/12/13 10:01:42;;;;;;;6.47;4.97;;;;;;;;;;5014845;28;20664;-62
2021/12/13 10:04:10;;;;;;;5.57;4.40;;;;;;;;;;4996935;28;20591;-61
2021/12/13 10:06:45;;;;;;;6.10;4.70;;;;;;;;;;4997022;28;20322;-61
2021/12/13 10:09:30;;;;;;;8.70;4.40;;;;;;;;;;4996851;28;20643;-60
2021/12/13 10:11:56;;;;;;;5.70;4.43;;;;;;;;;;5014558;28;20206;-62
2021/12/13 10:14:27;;;;;;;6.43;4.60;;;;;;;;;;5014896;28;20652;-62
2021/12/13 10:16:55;;;;;;;6.00;5.40;;;;;;;;;;4997144;28;20190;-62
2021/12/13 10:19:33;;;;;;;5.13;4.27;;;;;;;;;;5014589;28;20179;-61
2021/12/13 10:21:59;;;;;;;5.10;4.23;;;;;;;;;;4998631;28;20207;-62
2021/12/13 10:24:25;;;;;;;6.17;4.40;;;;;;;;;;5014495;28;20204;-62
2021/12/13 10:26:52;;;;;;;5.67;4.67;;;;;;;;;;4996753;28;20191;-62
2021/12/13 10:29:19;;;;;;;6.43;4.53;;;;;;;;;;5014436;28;20214;-62
2021/12/13 10:31:48;;;;;;;5.90;4.63;;;;;;;;;;4996719;28;20180;-62
2021/12/13 10:34:20;;;;;;;7.60;4.60;;;;;;;;;;5015342;28;20184;-62
2021/12/13 10:36:49;;;;;;;6.60;4.90;;;;;;;;;;5015249;28;20179;-62
2021/12/13 10:39:22;;;;;;;5.17;4.67;;;;;;;;;;5014790;28;20639;-62
2021/12/13 10:41:50;;;;;;;4.90;4.40;;;;;;;;;;5015271;28;20218;-62
2021/12/13 10:44:25;;;;;;;5.90;5.30;;;;;;;;;;5015023;28;20675;-62
2021/12/13 10:46:51;;;;;;;7.97;4.30;;;;;;;;;;5015365;28;20162;-62
2021/12/13 10:49:19;;;;;;;7.00;5.10;;;;;;;;;;5015417;28;20168;-61
2021/12/13 10:51:54;;;;;;;6.40;5.00;;;;;;;;;;5014755;28;20183;-61
2021/12/13 10:54:22;;;;;;;6.33;5.10;;;;;;;;;;5014730;28;20624;-62
2021/12/13 10:56:49;;;;;;;6.07;5.47;;;;;;;;;;5014565;28;20175;-62
2021/12/13 10:59:21;;;;;;;6.03;5.43;;;;;;;;;;4996563;28;20648;-62
2021/12/13 11:01:49;;;;;;;5.93;5.30;;;;;;;;;;5014635;28;20164;-62
2021/12/13 11:04:20;;;;;;;5.37;4.83;;;;;;;;;;5014777;28;20203;-63
2021/12/13 11:06:46;;;;;;;6.03;5.50;;;;;;;;;;5015156;28;20258;-63
2021/12/13 11:09:16;;;;;;;6.10;5.50;;;;;;;;;;5014567;28;20180;-62
2021/12/13 11:11:44;;;;;;;5.10;4.50;;;;;;;;;;5015621;28;20195;-63
2021/12/13 11:14:13;;;;;;;5.67;5.07;;;;;;;;;;5014336;28;20187;-63
2021/12/13 11:16:41;;;;;;;7.07;4.53;;;;;;;;;;5014540;28;20184;-62
2021/12/13 11:19:11;;;;;;;6.93;4.30;;;;;;;;;;5014041;28;20187;-62
2021/12/13 11:21:38;;;;;;;4.77;4.37;;;;;;;;;;4996898;28;20218;-62
2021/12/13 11:24:06;;;;;;;7.00;4.30;;;;;;;;;;5016075;28;20227;-63
2021/12/13 11:26:34;;;;;;;4.83;4.30;;;;;;;;;;5023408;28;20187;-63
2021/12/13 11:29:01;;;;;;;7.27;4.27;;;;;;;;;;5023072;28;20180;-63
2021/12/13 11:31:30;;;;;;;4.30;3.90;;;;;;;;;;5023217;28;20671;-63
2021/12/13 11:34:03;;;;;;;5.33;3.87;;;;;;;;;;5001659;28;20180;-62
2021/12/13 11:37:00;;;;;;;5.73;3.73;;;;;;;;;;5014088;28;20160;-62
2021/12/13 11:39:33;;;;;;;4.67;3.80;;;;;;;;;;5014209;28;20176;-62
2021/12/13 11:42:05;;;;;;;4.67;4.23;;;;;;;;;;5014141;28;20168;-63
2021/12/13 11:44:50;;;;;;;4.07;3.77;;;;;;;;;;4996723;28;20243;-62
2021/12/13 11:47:28;;;;;;;3.80;3.50;;;;;;;;;;5015044;28;20216;-62
2021/12/13 11:50:13;;;;;;;4.00;3.60;;;;;;;;;;5016694;28;20196;-63
2021/12/13 11:52:57;;;;;;;3.30;3.00;;;;;;;;;;5025530;28;20183;-63
2021/12/13 11:55:23;;;;;;;4.47;3.47;;;;;;;;;;5007521;28;20187;-63
2021/12/13 11:57:49;;;;;;;5.03;3.13;;;;;;;;;;5027666;28;20176;-62
2021/12/13 12:00:24;;;;;;;3.77;3.47;;;;;;;;;;5028215;28;20215;-63
2021/12/13 12:03:09;;;;;;;4.17;3.03;;;;;;;;;;5009257;28;20176;-62
2021/12/13 12:05:41;;;;;;;6.43;3.63;;;;;;;;;;5017072;28;20180;-63
2021/12/13 12:08:13;;;;;;;4.47;3.10;;;;;;;;;;5017850;28;20206;-63
2021/12/13 12:10:39;;;;;;;3.83;2.93;;;;;;;;;;5016981;28;20200;-62
2021/12/13 12:13:28;;;;;;;5.23;3.47;;;;;;;;;;5016957;28;20198;-61
2021/12/13 12:15:58;;;;;;;3.73;3.37;;;;;;;;;;5016701;28;20186;-62
2021/12/13 12:18:25;;;;;;;4.93;3.63;;;;;;;;;;5000231;28;20180;-62
2021/12/13 12:21:11;;;;;;;4.43;3.07;;;;;;;;;;5017385;28;20614;-62
2021/12/13 12:23:40;;;;;;;4.53;3.13;;;;;;;;;;5016630;28;20207;-62
2021/12/13 12:26:07;;;;;;;3.07;2.60;;;;;;;;;;5016799;28;20655;-63
2021/12/13 12:28:33;;;;;;;5.27;2.60;;;;;;;;;;5016884;28;20176;-62
2021/12/13 12:31:01;;;;;;;5.10;3.23;;;;;;;;;;5016609;28;20199;-62
2021/12/13 12:33:29;;;;;;;3.90;3.50;;;;;;;;;;5016523;28;20187;-63
2021/12/13 12:35:56;;;;;;;3.57;3.27;;;;;;;;;;5017112;28;20686;-62
2021/12/13 12:38:34;;;;;;;5.07;3.30;;;;;;;;;;4998904;28;20184;-64
2021/12/13 12:41:03;;;;;;;4.23;3.50;;;;;;;;;;5016648;28;20294;-62
2021/12/13 12:43:35;;;;;;;7.10;5.10;;;;;;;;;;5016783;28;20212;-62
2021/12/13 12:46:06;;;;;;;7.57;5.60;;;;;;;;;;5016586;28;20167;-62
2021/12/13 12:48:33;;;;;;;8.77;6.80;;;;;;;;;;5016891;28;20615;-63
2021/12/13 12:51:11;;;;;;;9.90;6.63;;;;;;;;;;4999854;28;20227;-63
2021/12/13 12:53:42;;;;;;;7.77;6.40;;;;;;;;;;5018452;28;20207;-63
2021/12/13 12:56:20;;;;;;;9.20;6.53;;;;;;;;;;5012246;28;20183;-63
2021/12/13 12:58:52;;;;;;;8.30;6.77;;;;;;;;;;5012008;28;20552;-62
2021/12/13 13:01:21;;;;;;;10.60;6.97;;;;;;;;;;5029957;28;20243;-63
2021/12/13 13:03:47;;;;;;;11.37;8.00;;;;;;;;;;5017348;28;20204;-62
2021/12/13 13:06:16;;;;;;;9.97;6.67;;;;;;;;;;5016069;28;20190;-62
2021/12/13 13:08:44;;;;;;;4.93;4.03;;;;;;;;;;4997462;28;20237;-62
2021/12/13 13:11:29;;;;;;;4.57;3.40;;;;;;;;;;5000164;28;20271;-62
2021/12/13 13:13:58;;;;;;;4.60;3.50;;;;;;;;;;5016164;28;20191;-63
2021/12/13 13:16:28;;;;;;;4.47;3.47;;;;;;;;;;5015997;28;20191;-62
2021/12/13 13:18:55;;;;;;;5.57;3.33;;;;;;;;;;5015710;28;20674;-63
2021/12/13 13:21:21;;;;;;;5.80;3.37;;;;;;;;;;5015532;28;20203;-64
2021/12/13 13:23:50;;;;;;;3.57;3.03;;;;;;;;;;4998047;28;20233;-63
2021/12/13 13:26:17;;;;;;;5.27;4.00;;;;;;;;;;5015493;28;20272;-62
2021/12/13 13:28:43;;;;;;;7.07;4.87;;;;;;;;;;4997788;28;20221;-62
2021/12/13 13:31:12;;;;;;;7.40;4.67;;;;;;;;;;5015551;28;20195;-62
2021/12/13 13:33:41;;;;;;;7.83;4.33;;;;;;;;;;5015358;28;20532;-62
2021/12/13 13:36:08;;;;;;;7.93;4.97;;;;;;;;;;4997852;28;20184;-62
2021/12/13 13:38:34;;;;;;;7.20;5.10;;;;;;;;;;5015422;28;20606;-63
2021/12/13 13:41:00;;;;;;;5.07;4.07;;;;;;;;;;5015138;28;20228;-62
2021/12/13 13:43:31;;;;;;;2.70;2.50;;;;;;;;;;5016243;28;20230;-62
2021/12/13 13:45:57;;;;;;;2.67;2.23;;;;;;;;;;5015351;28;20168;-62
2021/12/13 13:48:23;;;;;;;1.73;1.63;;;;;;;;;;5016062;28;20214;-63
2021/12/13 13:50:51;;;;;;;2.30;2.03;;;;;;;;;;4999447;28;20207;-62
2021/12/13 13:53:19;;;;;;;2.67;2.37;;;;;;;;;;5000383;28;20241;-62
2021/12/13 13:55:51;;;;;;;2.83;2.60;;;;;;;;;;4999794;28;20183;-63
2021/12/13 13:58:24;;;;;;;3.47;3.13;;;;;;;;;;5017578;28;20180;-63
2021/12/13 14:00:55;;;;;;;3.80;3.03;;;;;;;;;;5015491;28;20239;-62
2021/12/13 14:03:25;;;;;;;4.87;2.90;;;;;;;;;;4997215;28;20219;-63
2021/12/13 14:05:54;;;;;;;2.87;2.43;;;;;;;;;;5015858;28;20548;-62
2021/12/13 14:08:25;;;;;;;2.70;2.30;;;;;;;;;;5014714;28;20203;-63
2021/12/13 14:10:52;;;;;;;2.73;2.20;;;;;;;;;;5014913;28;20573;-62
2021/12/13 14:13:18;;;;;;;3.50;1.80;;;;;;;;;;5014540;28;20199;-62
2021/12/13 14:15:47;;;;;;;2.23;2.00;;;;;;;;;;4996980;28;20564;-62
2021/12/13 14:18:16;;;;;;;2.40;1.93;;;;;;;;;;5014715;28;20176;-62
2021/12/13 14:20:43;;;;;;;2.90;2.37;;;;;;;;;;4995845;28;20208;-62
2021/12/13 14:23:12;;;;;;;2.60;2.20;;;;;;;;;;4996828;28;20590;-62
2021/12/13 14:25:39;;;;;;;2.20;2.00;;;;;;;;;;5014486;28;20331;-62
2021/12/13 14:28:07;;;;;;;3.47;2.50;;;;;;;;;;5014854;28;20186;-62
2021/12/13 14:30:41;;;;;;;2.83;1.90;;;;;;;;;;5014470;28;20659;-62
2021/12/13 14:33:27;;;;;;;3.20;2.27;;;;;;;;;;5014323;28;20549;-62
2021/12/13 14:36:00;;;;;;;2.33;2.13;;;;;;;;;;5015050;28;20188;-62
2021/12/13 14:38:27;;;;;;;5.50;3.80;;;;;;;;;;5014397;28;20164;-62
2021/12/13 14:40:54;;;;;;;3.63;2.93;;;;;;;;;;5016246;28;20207;-63
2021/12/13 14:43:22;;;;;;;3.60;2.27;;;;;;;;;;5015602;28;20214;-62
2021/12/13 14:45:48;;;;;;;3.00;2.70;;;;;;;;;;4997769;28;20278;-62
2021/12/13 14:48:19;;;;;;;3.93;2.23;;;;;;;;;;4996753;28;20186;-62
2021/12/13 14:50:49;;;;;;;3.47;2.47;;;;;;;;;;4996782;28;20279;-62
2021/12/13 14:53:23;;;;;;;3.03;2.30;;;;;;;;;;4996703;28;20648;-62
2021/12/13 14:55:49;;;;;;;4.83;2.60;;;;;;;;;;5014603;28;20171;-62
2021/12/13 14:58:19;;;;;;;4.60;2.67;;;;;;;;;;5014221;28;20179;-62
2021/12/13 15:00:49;;;;;;;3.83;2.47;;;;;;;;;;5014234;28;20745;-62
2021/12/13 15:03:18;;;;;;;3.67;2.40;;;;;;;;;;4996594;28;20204;-62
2021/12/13 15:05:46;;;;;;;2.73;2.13;;;;;;;;;;5014338;28;20180;-62
2021/12/13 15:08:14;;;;;;;3.30;1.90;;;;;;;;;;5013987;28;20180;-62
2021/12/13 15:10:43;;;;;;;3.63;2.00;;;;;;;;;;4996252;28;20200;-62
2021/12/13 15:13:12;;;;;;;2.33;1.80;;;;;;;;;;5013907;28;20179;-62
2021/12/13 15:15:51;;;;;;;3.17;2.30;;;;;;;;;;5014185;28;20636;-63
2021/12/13 15:18:18;;;;;;;2.80;2.13;;;;;;;;;;5014496;28;20168;-62